createdAt,value
2022-08-23T00:01:24.738Z,1.20
2022-08-23T00:03:53.590Z,1.80
2022-08-23T00:06:22.657Z,1.58
2022-08-23T00:08:52.448Z,1.23
2022-08-23T00:11:31.762Z,1.55
2022-08-23T00:14:01.446Z,1.30
2022-08-23T00:16:30.797Z,1.30
2022-08-23T00:18:59.390Z,1.52
2022-08-23T00:21:27.937Z,1.40
2022-08-23T00:23:58.497Z,1.52
2022-08-23T00:26:26.518Z,1.50
2022-08-23T00:28:54.419Z,1.50
2022-08-23T00:31:22.433Z,1.25
2022-08-23T00:33:51.534Z,1.20
2022-08-23T00:36:19.299Z,1.40
2022-08-23T00:38:47.098Z,1.40
2022-08-23T00:41:14.995Z,1.50
2022-08-23T00:44:00.962Z,1.42
2022-08-23T00:46:58.244Z,1.30
2022-08-23T00:49:31.068Z,0.93
2022-08-23T00:52:06.532Z,1.30
2022-08-23T00:54:35.473Z,1.45
2022-08-23T00:57:06.658Z,1.35
2022-08-23T00:59:34.913Z,1.70
2022-08-23T01:02:03.089Z,1.40
2022-08-23T01:04:38.348Z,1.25
2022-08-23T01:07:14.191Z,1.70
2022-08-23T01:09:44.312Z,1.30
2022-08-23T01:12:29.560Z,1.58
2022-08-23T01:15:04.237Z,1.45
2022-08-23T01:17:37.789Z,1.70
2022-08-23T01:20:10.512Z,1.55
2022-08-23T01:22:43.492Z,1.60
2022-08-23T01:25:17.440Z,1.60
2022-08-23T01:27:45.816Z,1.50
2022-08-23T01:30:18.101Z,1.30
2022-08-23T01:35:16.816Z,1.67
2022-08-23T01:37:45.483Z,1.30
2022-08-23T01:40:16.097Z,1.83
2022-08-23T01:42:44.178Z,1.70
2022-08-23T01:45:14.375Z,1.92
2022-08-23T01:47:42.979Z,1.70
2022-08-23T01:50:12.788Z,1.50
2022-08-23T01:52:47.003Z,1.60
2022-08-23T01:55:17.244Z,1.70
2022-08-23T01:57:48.438Z,1.83
2022-08-23T02:00:18.196Z,1.75
2022-08-23T02:02:47.120Z,1.70
2022-08-23T02:05:19.067Z,1.75
2022-08-23T02:07:47.989Z,1.67
2022-08-23T02:10:19.064Z,1.60
2022-08-23T02:12:46.948Z,1.55
2022-08-23T02:15:16.761Z,1.55
2022-08-23T02:17:45.528Z,1.70
2022-08-23T02:20:14.205Z,1.63
2022-08-23T02:22:41.960Z,2.20
2022-08-23T02:25:10.417Z,1.55
2022-08-23T02:27:42.889Z,1.88
2022-08-23T02:30:12.975Z,2.22
2022-08-23T02:32:42.185Z,1.95
2022-08-23T02:37:56.202Z,2.22
2022-08-23T02:40:24.049Z,2.03
2022-08-23T02:42:53.226Z,2.03
2022-08-23T02:45:21.458Z,2.55
2022-08-23T02:47:49.295Z,2.50
2022-08-23T02:50:20.522Z,2.58
2022-08-23T02:52:48.664Z,2.08
2022-08-23T02:55:16.838Z,2.20
2022-08-23T02:57:44.660Z,2.25
2022-08-23T03:00:16.363Z,2.40
2022-08-23T03:02:44.686Z,2.22
2022-08-23T03:05:13.766Z,1.95
2022-08-23T03:07:42.193Z,2.40
2022-08-23T03:10:11.401Z,2.00
2022-08-23T03:12:39.272Z,1.58
2022-08-23T03:15:08.337Z,1.45
2022-08-23T03:17:37.495Z,1.85
2022-08-23T03:20:06.716Z,1.70
2022-08-23T03:22:34.943Z,1.90
2022-08-23T03:25:02.778Z,2.00
2022-08-23T03:27:31.514Z,1.50
2022-08-23T03:30:09.436Z,1.50
2022-08-23T03:32:48.972Z,1.90
2022-08-23T03:35:19.112Z,1.93
2022-08-23T03:37:51.356Z,1.98
2022-08-23T03:40:23.744Z,1.67
2022-08-23T03:42:51.741Z,1.88
2022-08-23T03:45:19.964Z,1.95
2022-08-23T03:47:49.065Z,1.73
2022-08-23T03:50:16.826Z,2.00
2022-08-23T03:52:44.886Z,1.60
2022-08-23T03:55:12.746Z,1.65
2022-08-23T03:57:40.840Z,1.77
2022-08-23T04:00:11.273Z,1.65
2022-08-23T04:02:39.893Z,1.67
2022-08-23T04:05:10.948Z,2.00
2022-08-23T04:07:39.086Z,2.30
2022-08-23T04:10:09.133Z,1.90
2022-08-23T04:12:37.138Z,2.03
2022-08-23T04:15:05.600Z,2.00
2022-08-23T04:17:33.467Z,1.80
2022-08-23T04:20:01.195Z,1.55
2022-08-23T04:22:30.675Z,1.50
2022-08-23T04:24:58.746Z,1.77
2022-08-23T04:27:26.645Z,1.90
2022-08-23T04:29:54.425Z,1.67
2022-08-23T04:32:28.558Z,1.90
2022-08-23T04:34:57.555Z,1.63
2022-08-23T04:37:25.360Z,1.92
2022-08-23T04:40:12.551Z,1.95
2022-08-23T04:42:40.662Z,1.52
2022-08-23T04:45:09.458Z,1.65
2022-08-23T04:47:40.347Z,1.77
2022-08-23T04:50:09.117Z,1.63
2022-08-23T04:52:36.936Z,1.80
2022-08-23T04:55:07.180Z,1.70
2022-08-23T04:57:35.202Z,1.77
2022-08-23T05:00:03.273Z,1.58
2022-08-23T05:02:31.022Z,1.60
2022-08-23T05:04:59.385Z,1.52
2022-08-23T05:07:31.000Z,1.73
2022-08-23T05:10:14.071Z,1.88
2022-08-23T05:12:45.048Z,1.65
2022-08-23T05:15:13.345Z,1.38
2022-08-23T05:17:41.262Z,1.60
2022-08-23T05:20:10.374Z,1.75
2022-08-23T05:22:40.921Z,2.35
2022-08-23T05:25:09.651Z,2.75
2022-08-23T05:27:41.964Z,2.30
2022-08-23T05:30:15.164Z,2.20
2022-08-23T05:32:43.595Z,2.60
2022-08-23T05:35:11.364Z,2.47
2022-08-23T05:37:39.141Z,1.65
2022-08-23T05:40:07.942Z,2.03
2022-08-23T05:42:36.025Z,2.28
2022-08-23T05:45:06.059Z,1.90
2022-08-23T05:47:34.011Z,1.80
2022-08-23T05:50:01.858Z,1.80
2022-08-23T05:52:29.623Z,1.48
2022-08-23T05:54:57.406Z,1.60
2022-08-23T05:57:25.186Z,1.90
2022-08-23T05:59:52.996Z,1.92
2022-08-23T06:02:22.263Z,2.10
2022-08-23T06:04:51.625Z,2.00
2022-08-23T06:07:22.141Z,2.40
2022-08-23T06:09:49.922Z,2.22
2022-08-23T06:12:18.569Z,1.92
2022-08-23T06:14:46.305Z,2.03
2022-08-23T06:17:14.086Z,2.20
2022-08-23T06:19:43.266Z,2.20
2022-08-23T06:22:11.024Z,1.63
2022-08-23T06:24:38.805Z,2.00
2022-08-23T06:27:07.346Z,2.08
2022-08-23T06:29:35.149Z,1.92
2022-08-23T06:32:02.947Z,2.00
2022-08-23T06:34:33.576Z,2.08
2022-08-23T06:37:04.775Z,3.60
2022-08-23T06:39:36.901Z,3.33
2022-08-23T06:42:34.359Z,3.40
2022-08-23T06:44:56.356Z,3.25
2022-08-23T06:47:24.082Z,3.95
2022-08-23T06:49:57.661Z,8.18
2022-08-23T06:52:28.338Z,8.38
2022-08-23T06:54:57.600Z,7.47
2022-08-23T06:57:25.681Z,4.88
2022-08-23T06:59:53.401Z,4.10
2022-08-23T07:02:21.320Z,2.95
2022-08-23T07:04:53.780Z,2.45
2022-08-23T07:07:21.586Z,2.35
2022-08-23T07:09:50.833Z,1.98
2022-08-23T07:12:19.837Z,2.10
2022-08-23T07:14:47.948Z,2.15
2022-08-23T07:17:16.889Z,1.73
2022-08-23T07:19:44.680Z,1.80
2022-08-23T07:22:12.964Z,1.48
2022-08-23T07:24:43.540Z,1.35
2022-08-23T07:27:12.751Z,1.13
2022-08-23T07:29:41.340Z,1.27
2022-08-23T07:32:09.755Z,1.25
2022-08-23T07:34:37.625Z,1.40
2022-08-23T07:37:11.233Z,1.30
2022-08-23T07:39:43.801Z,1.30
2022-08-23T07:42:23.323Z,1.13
2022-08-23T07:44:52.708Z,1.27
2022-08-23T07:47:21.615Z,1.25
2022-08-23T07:49:49.420Z,1.48
2022-08-23T07:52:17.202Z,1.30
2022-08-23T07:54:48.359Z,1.25
2022-08-23T07:57:18.138Z,1.10
2022-08-23T07:59:46.128Z,1.13
2022-08-23T08:02:14.024Z,1.10
2022-08-23T08:04:42.202Z,1.00
2022-08-23T08:07:19.251Z,1.10
2022-08-23T08:09:48.814Z,1.10
2022-08-23T08:12:18.021Z,1.10
2022-08-23T08:14:48.105Z,1.20
2022-08-23T08:17:17.181Z,1.20
2022-08-23T08:19:44.953Z,1.23
2022-08-23T08:22:13.224Z,1.10
2022-08-23T08:24:41.140Z,1.58
2022-08-23T08:27:09.266Z,1.20
2022-08-23T08:29:38.517Z,1.00
2022-08-23T08:32:07.313Z,0.88
2022-08-23T08:34:41.635Z,0.82
2022-08-23T08:37:09.534Z,1.40
2022-08-23T08:39:37.434Z,0.80
2022-08-23T08:42:20.460Z,0.85
2022-08-23T08:44:55.160Z,1.05
2022-08-23T08:47:29.947Z,0.95
2022-08-23T08:50:03.191Z,1.02
2022-08-23T08:52:36.825Z,1.20
2022-08-23T08:55:09.250Z,1.13
2022-08-23T08:57:41.446Z,0.95
2022-08-23T09:00:14.991Z,0.90
2022-08-23T09:02:45.137Z,0.95
2022-08-23T09:05:17.872Z,0.60
2022-08-23T09:07:54.779Z,0.80
2022-08-23T09:10:50.985Z,0.70
2022-08-23T09:13:45.992Z,0.85
2022-08-23T09:16:28.841Z,0.90
2022-08-23T09:18:56.974Z,1.10
2022-08-23T09:21:26.191Z,0.95
2022-08-23T09:24:00.308Z,0.80
2022-08-23T09:26:31.480Z,1.15
2022-08-23T09:29:02.961Z,0.90
2022-08-23T09:31:44.682Z,0.85
2022-08-23T09:34:18.225Z,0.70
2022-08-23T09:36:46.087Z,0.73
2022-08-23T09:39:30.861Z,0.70
2022-08-23T09:42:00.760Z,0.65
2022-08-23T09:44:37.337Z,0.68
2022-08-23T09:47:09.727Z,1.00
2022-08-23T09:49:37.765Z,0.80
2022-08-23T09:52:22.163Z,0.90
2022-08-23T09:54:56.912Z,1.00
2022-08-23T09:57:28.544Z,0.90
2022-08-23T10:00:01.928Z,0.80
2022-08-23T10:02:34.401Z,1.00
2022-08-23T10:05:05.901Z,1.10
2022-08-23T10:07:38.261Z,0.80
2022-08-23T10:10:21.568Z,0.85
2022-08-23T10:12:49.564Z,0.75
2022-08-23T10:15:19.297Z,0.60
2022-08-23T10:17:57.001Z,0.88
2022-08-23T10:20:34.410Z,0.73
2022-08-23T10:23:13.245Z,0.60
2022-08-23T10:25:46.011Z,0.73
2022-08-23T10:28:39.390Z,0.60
2022-08-23T10:31:15.484Z,0.55
2022-08-23T10:33:54.917Z,0.63
2022-08-23T10:36:28.514Z,0.52
2022-08-23T10:38:58.743Z,0.70
2022-08-23T10:41:47.647Z,0.80
2022-08-23T10:44:35.533Z,0.60
2022-08-23T10:47:14.049Z,0.50
2022-08-23T10:49:50.728Z,0.60
2022-08-23T10:52:24.693Z,0.60
2022-08-23T10:55:06.470Z,0.70
2022-08-23T11:00:09.242Z,0.80
2022-08-23T11:02:45.791Z,0.70
2022-08-23T11:05:27.122Z,0.75
2022-08-23T11:08:02.163Z,0.63
2022-08-23T11:10:53.689Z,0.90
2022-08-23T11:13:27.479Z,0.65
2022-08-23T11:16:01.429Z,0.90
2022-08-23T11:18:43.002Z,0.70
2022-08-23T11:21:47.183Z,1.10
2022-08-23T11:24:34.252Z,0.70
2022-08-23T11:27:06.551Z,0.65
2022-08-23T11:29:43.726Z,0.68
2022-08-23T11:32:43.778Z,0.60
2022-08-23T11:35:43.235Z,0.65
2022-08-23T11:38:13.704Z,0.82
2022-08-23T11:40:56.791Z,0.82
2022-08-23T11:43:29.102Z,0.80
2022-08-23T11:46:16.640Z,0.85
2022-08-23T11:48:50.923Z,0.73
2022-08-23T11:51:29.808Z,0.70
2022-08-23T11:54:23.953Z,0.68
2022-08-23T11:57:19.866Z,0.73
2022-08-23T12:00:07.397Z,0.85
2022-08-23T12:03:01.844Z,1.10
2022-08-23T12:06:03.651Z,0.80
2022-08-23T12:08:49.482Z,0.95
2022-08-23T12:11:20.396Z,0.70
2022-08-23T12:13:56.467Z,0.80
2022-08-23T12:16:34.756Z,0.70
2022-08-23T12:19:25.885Z,0.60
2022-08-23T12:21:57.238Z,0.75
2022-08-23T12:24:29.626Z,0.95
2022-08-23T12:27:09.183Z,0.80
2022-08-23T12:29:58.912Z,0.70
2022-08-23T12:32:36.165Z,0.68
2022-08-23T12:35:26.963Z,0.70
2022-08-23T12:38:02.549Z,0.63
2022-08-23T12:40:33.543Z,0.90
2022-08-23T12:43:11.826Z,1.30
2022-08-23T12:45:49.982Z,1.05
2022-08-23T12:48:20.474Z,0.68
2022-08-23T12:50:54.344Z,0.70
2022-08-23T12:53:29.016Z,0.95
2022-08-23T12:56:03.471Z,1.13
2022-08-23T12:58:35.800Z,0.80
2022-08-23T13:01:07.086Z,0.80
2022-08-23T13:03:38.741Z,0.80
2022-08-23T13:06:10.678Z,0.80
2022-08-23T13:08:43.380Z,0.82
2022-08-23T13:11:14.016Z,0.65
2022-08-23T13:13:45.339Z,1.07
2022-08-23T13:16:29.219Z,0.90
2022-08-23T13:19:10.922Z,0.90
2022-08-23T13:24:38.580Z,0.90
2022-08-23T13:27:22.491Z,0.70
2022-08-23T13:30:02.776Z,0.65
2022-08-23T13:32:40.301Z,0.98
2022-08-23T13:35:33.989Z,0.73
2022-08-23T13:38:11.222Z,0.70
2022-08-23T13:40:44.147Z,1.55
2022-08-23T13:43:20.984Z,0.80
2022-08-23T13:45:52.673Z,0.60
2022-08-23T13:48:23.248Z,0.85
2022-08-23T13:50:51.948Z,0.70
2022-08-23T13:53:19.998Z,0.70
2022-08-23T13:55:49.885Z,0.90
2022-08-23T13:58:27.940Z,0.70
2022-08-23T14:00:59.020Z,0.65
2022-08-23T14:03:33.195Z,1.35
2022-08-23T14:06:01.010Z,0.60
2022-08-23T14:08:28.780Z,0.70
2022-08-23T14:10:56.624Z,0.60
2022-08-23T14:13:28.462Z,0.85
2022-08-23T14:21:38.582Z,0.90
2022-08-23T14:24:08.203Z,0.73
2022-08-23T14:26:36.169Z,0.70
2022-08-23T14:29:04.645Z,0.80
2022-08-23T14:31:34.191Z,0.70
2022-08-23T14:34:02.352Z,0.63
2022-08-23T14:36:30.242Z,0.63
2022-08-23T14:38:58.003Z,0.70
2022-08-23T14:41:28.585Z,0.88
2022-08-23T14:43:56.704Z,0.60
2022-08-23T14:46:24.718Z,0.80
2022-08-23T14:48:53.854Z,0.93
2022-08-23T14:51:27.089Z,0.75
2022-08-23T14:53:55.929Z,0.70
2022-08-23T14:56:24.032Z,0.73
2022-08-23T14:58:52.028Z,0.77
2022-08-23T15:01:20.835Z,0.70
2022-08-23T15:03:49.692Z,0.50
2022-08-23T15:06:20.740Z,0.60
2022-08-23T15:08:48.906Z,0.47
2022-08-23T15:14:07.203Z,0.60
2022-08-23T15:16:35.748Z,0.60
2022-08-23T15:19:03.703Z,0.70
2022-08-23T15:21:32.868Z,0.75
2022-08-23T15:24:00.671Z,0.70
2022-08-23T15:26:31.147Z,0.80
2022-08-23T15:28:59.341Z,0.77
2022-08-23T15:31:29.817Z,0.90
2022-08-23T15:33:57.731Z,0.67
2022-08-23T15:36:36.267Z,0.68
2022-08-23T15:39:05.514Z,0.52
2022-08-23T15:41:33.239Z,0.65
2022-08-23T15:44:01.658Z,0.50
2022-08-23T15:46:29.738Z,0.60
2022-08-23T15:49:01.983Z,0.60
2022-08-23T15:51:30.133Z,0.50
2022-08-23T15:53:58.718Z,0.77
2022-08-23T15:56:32.528Z,0.80
2022-08-23T15:59:00.404Z,0.70
2022-08-23T16:01:33.597Z,0.60
2022-08-23T16:04:02.180Z,0.80
2022-08-23T16:06:35.843Z,0.63
2022-08-23T16:09:06.876Z,0.60
2022-08-23T16:11:36.078Z,0.80
2022-08-23T16:14:04.943Z,0.73
2022-08-23T16:16:37.566Z,0.80
2022-08-23T16:19:05.635Z,0.80
2022-08-23T16:21:34.318Z,0.80
2022-08-23T16:24:02.509Z,0.82
2022-08-23T16:26:35.035Z,0.70
2022-08-23T16:29:06.973Z,0.60
2022-08-23T16:31:38.432Z,0.73
2022-08-23T16:34:09.638Z,0.85
2022-08-23T16:36:38.036Z,0.98
2022-08-23T16:39:06.571Z,0.80
2022-08-23T16:41:34.378Z,0.82
2022-08-23T16:44:02.250Z,0.80
2022-08-23T16:46:31.750Z,0.80
2022-08-23T16:48:59.599Z,0.82
2022-08-23T16:51:27.795Z,0.85
2022-08-23T16:54:02.531Z,0.90
2022-08-23T16:56:31.580Z,1.00
2022-08-23T16:58:59.712Z,0.60
2022-08-23T17:01:28.958Z,0.90
2022-08-23T17:03:58.337Z,0.60
2022-08-23T17:06:26.532Z,0.90
2022-08-23T17:08:57.107Z,0.63
2022-08-23T17:11:25.440Z,0.93
2022-08-23T17:14:05.096Z,0.70
2022-08-23T17:16:34.034Z,0.70
2022-08-23T17:19:03.214Z,0.63
2022-08-23T17:21:31.229Z,0.80
2022-08-23T17:23:59.041Z,0.90
2022-08-23T17:26:27.174Z,0.95
2022-08-23T17:28:56.554Z,3.17
2022-08-23T17:31:24.760Z,0.82
2022-08-23T17:33:52.755Z,0.98
2022-08-23T17:36:31.070Z,0.85
2022-08-23T17:38:59.378Z,0.80
2022-08-23T17:41:28.324Z,0.70
2022-08-23T17:43:56.813Z,0.80
2022-08-23T17:46:24.809Z,0.65
2022-08-23T17:48:53.050Z,0.60
2022-08-23T17:51:21.565Z,0.80
2022-08-23T17:53:50.617Z,0.68
2022-08-23T17:56:18.649Z,0.70
2022-08-23T17:58:46.786Z,0.90
2022-08-23T18:01:14.887Z,0.70
2022-08-23T18:03:43.443Z,0.70
2022-08-23T18:06:17.194Z,0.60
2022-08-23T18:08:47.397Z,1.00
2022-08-23T18:11:16.741Z,1.10
2022-08-23T18:13:44.628Z,0.90
2022-08-23T18:16:12.410Z,1.00
2022-08-23T18:18:40.480Z,1.23
2022-08-23T18:21:09.890Z,0.80
2022-08-23T18:23:38.897Z,0.70
2022-08-23T18:26:08.030Z,1.00
2022-08-23T18:28:36.262Z,0.70
2022-08-23T18:31:05.918Z,0.60
2022-08-23T18:33:46.311Z,0.75
2022-08-23T18:36:15.563Z,0.80
2022-08-23T18:38:43.314Z,0.70
2022-08-23T18:41:13.062Z,0.70
2022-08-23T18:43:42.966Z,0.70
2022-08-23T18:46:12.812Z,0.75
2022-08-23T18:48:40.887Z,0.75
2022-08-23T18:51:17.694Z,0.80
2022-08-23T18:53:46.028Z,0.60
2022-08-23T18:56:13.829Z,0.80
2022-08-23T18:58:42.909Z,0.93
2022-08-23T19:01:22.445Z,0.70
2022-08-23T19:03:50.498Z,0.68
2022-08-23T19:06:18.251Z,0.80
2022-08-23T19:08:46.757Z,0.73
2022-08-23T19:11:15.690Z,0.77
2022-08-23T19:13:44.878Z,0.80
2022-08-23T19:16:14.244Z,0.65
2022-08-23T19:18:42.553Z,0.55
2022-08-23T19:21:10.320Z,0.77
2022-08-23T19:23:38.102Z,1.02
2022-08-23T19:26:09.674Z,0.70
2022-08-23T19:28:38.261Z,0.68
2022-08-23T19:31:08.278Z,0.80
2022-08-23T19:33:36.556Z,0.60
2022-08-23T19:36:05.440Z,0.80
2022-08-23T19:38:33.632Z,0.90
2022-08-23T19:41:03.413Z,0.80
2022-08-23T19:43:31.612Z,0.77
2022-08-23T19:45:59.776Z,0.93
2022-08-23T19:48:28.896Z,1.33
2022-08-23T19:50:56.696Z,1.73
2022-08-23T19:53:24.533Z,1.23
2022-08-23T19:55:52.280Z,1.80
2022-08-23T19:58:20.891Z,1.30
2022-08-23T20:00:48.753Z,2.13
2022-08-23T20:03:16.786Z,2.40
2022-08-23T20:05:45.982Z,2.17
2022-08-23T20:08:13.797Z,2.22
2022-08-23T20:10:44.127Z,1.73
2022-08-23T20:13:12.722Z,1.83
2022-08-23T20:15:41.025Z,1.60
2022-08-23T20:18:08.757Z,1.50
2022-08-23T20:20:36.481Z,1.40
2022-08-23T20:23:22.319Z,1.13
2022-08-23T20:25:50.306Z,1.50
2022-08-23T20:28:18.078Z,1.35
2022-08-23T20:30:45.794Z,1.13
2022-08-23T20:33:13.610Z,1.50
2022-08-23T20:35:41.338Z,1.20
2022-08-23T20:38:10.472Z,1.42
2022-08-23T20:40:58.266Z,1.48
2022-08-23T20:43:26.040Z,1.20
2022-08-23T20:45:54.071Z,1.40
2022-08-23T20:48:23.196Z,1.50
2022-08-23T20:50:50.948Z,1.60
2022-08-23T20:53:20.080Z,1.60
2022-08-23T20:55:47.959Z,1.52
2022-08-23T20:58:16.108Z,1.55
2022-08-23T21:00:44.175Z,1.38
2022-08-23T21:03:12.073Z,1.40
2022-08-23T21:05:40.043Z,1.52
2022-08-23T21:08:09.054Z,1.40
2022-08-23T21:15:40.819Z,1.67
2022-08-23T21:18:08.730Z,1.20
2022-08-23T21:20:39.513Z,1.40
2022-08-23T21:23:07.339Z,1.30
2022-08-23T21:25:35.098Z,1.17
2022-08-23T21:28:04.706Z,1.40
2022-08-23T21:30:32.557Z,1.13
2022-08-23T21:33:00.942Z,1.00
2022-08-23T21:35:29.032Z,1.00
2022-08-23T21:37:56.788Z,1.30
2022-08-23T21:40:26.295Z,1.48
2022-08-23T21:42:54.408Z,1.30
2022-08-23T21:45:24.138Z,1.40
2022-08-23T21:47:53.273Z,1.25
2022-08-23T21:50:21.155Z,1.20
2022-08-23T21:52:56.304Z,1.48
2022-08-23T21:55:35.274Z,1.83
2022-08-23T21:58:04.297Z,1.20
2022-08-23T22:00:33.721Z,1.30
2022-08-23T22:03:02.009Z,1.23
2022-08-23T22:05:30.114Z,1.02
2022-08-23T22:07:57.889Z,1.20
2022-08-23T22:10:25.745Z,1.50
2022-08-23T22:12:55.530Z,1.20
2022-08-23T22:15:25.117Z,1.20
2022-08-23T22:17:54.222Z,1.08
2022-08-23T22:20:22.141Z,1.30
2022-08-23T22:22:50.272Z,1.67
2022-08-23T22:25:18.685Z,1.00
2022-08-23T22:27:47.199Z,1.05
2022-08-23T22:30:15.475Z,1.45
2022-08-23T22:32:44.001Z,1.13
2022-08-23T22:35:16.318Z,1.23
2022-08-23T22:38:10.132Z,1.10
2022-08-23T22:40:36.531Z,1.60
2022-08-23T22:43:04.492Z,1.20
2022-08-23T22:45:32.474Z,1.13
2022-08-23T22:48:00.708Z,1.00
2022-08-23T22:50:29.914Z,1.10
2022-08-23T22:52:57.696Z,1.10
2022-08-23T22:55:25.812Z,1.10
2022-08-23T22:57:53.496Z,1.58
2022-08-23T23:00:21.539Z,1.20
2022-08-23T23:02:49.451Z,1.17
2022-08-23T23:05:20.964Z,1.13
2022-08-23T23:08:07.838Z,1.10
2022-08-23T23:10:35.894Z,1.30
2022-08-23T23:13:03.983Z,1.33
2022-08-23T23:15:31.859Z,0.88
2022-08-23T23:17:59.601Z,1.08
2022-08-23T23:20:40.816Z,1.00
2022-08-23T23:23:13.382Z,1.00
2022-08-23T23:25:41.749Z,1.00
2022-08-23T23:28:10.242Z,1.20
2022-08-23T23:30:39.006Z,1.10
2022-08-23T23:33:07.460Z,1.30
2022-08-23T23:35:35.693Z,1.20
2022-08-23T23:38:04.446Z,1.02
2022-08-23T23:40:34.659Z,1.42
2022-08-23T23:43:02.632Z,1.30
2022-08-23T23:45:30.759Z,1.08
2022-08-23T23:47:59.056Z,1.40
2022-08-23T23:50:26.972Z,1.60
2022-08-23T23:52:55.178Z,1.20
2022-08-23T23:55:24.724Z,1.05
2022-08-23T23:57:54.092Z,1.35
